sensor_id;sensor_type;location;lat;lon;timestamp;temperature;humidity
28247;DHT22;34504;53.178;22.058;2022-08-19T00:01:57;23.20;88.70
28247;DHT22;34504;53.178;22.058;2022-08-19T00:04:32;23.20;88.90
28247;DHT22;34504;53.178;22.058;2022-08-19T00:07:04;23.20;89.10
28247;DHT22;34504;53.178;22.058;2022-08-19T00:09:33;23.10;89.10
28247;DHT22;34504;53.178;22.058;2022-08-19T00:12:01;23.00;89.30
28247;DHT22;34504;53.178;22.058;2022-08-19T00:14:29;23.00;89.40
28247;DHT22;34504;53.178;22.058;2022-08-19T00:17:00;22.90;89.60
28247;DHT22;34504;53.178;22.058;2022-08-19T00:19:28;22.80;89.80
28247;DHT22;34504;53.178;22.058;2022-08-19T00:21:56;22.80;90.10
28247;DHT22;34504;53.178;22.058;2022-08-19T00:24:25;22.80;90.10
28247;DHT22;34504;53.178;22.058;2022-08-19T00:26:56;22.70;90.20
28247;DHT22;34504;53.178;22.058;2022-08-19T00:29:44;22.70;90.20
28247;DHT22;34504;53.178;22.058;2022-08-19T00:32:19;22.60;90.30
28247;DHT22;34504;53.178;22.058;2022-08-19T00:34:47;22.60;90.40
28247;DHT22;34504;53.178;22.058;2022-08-19T00:37:15;22.60;90.50
28247;DHT22;34504;53.178;22.058;2022-08-19T00:39:43;22.50;90.50
28247;DHT22;34504;53.178;22.058;2022-08-19T00:42:15;22.50;90.60
28247;DHT22;34504;53.178;22.058;2022-08-19T00:44:43;22.50;90.70
28247;DHT22;34504;53.178;22.058;2022-08-19T00:47:11;22.40;90.80
28247;DHT22;34504;53.178;22.058;2022-08-19T00:49:45;22.50;90.80
28247;DHT22;34504;53.178;22.058;2022-08-19T00:52:30;22.40;90.80
28247;DHT22;34504;53.178;22.058;2022-08-19T00:55:00;22.40;91.00
28247;DHT22;34504;53.178;22.058;2022-08-19T00:57:35;22.50;90.90
28247;DHT22;34504;53.178;22.058;2022-08-19T01:00:08;22.40;91.10
28247;DHT22;34504;53.178;22.058;2022-08-19T01:02:40;22.40;91.10
28247;DHT22;34504;53.178;22.058;2022-08-19T01:05:14;22.40;91.10
28247;DHT22;34504;53.178;22.058;2022-08-19T01:07:43;22.50;91.10
28247;DHT22;34504;53.178;22.058;2022-08-19T01:10:15;22.50;91.00
28247;DHT22;34504;53.178;22.058;2022-08-19T01:12:44;22.50;91.10
28247;DHT22;34504;53.178;22.058;2022-08-19T01:15:14;22.50;91.00
28247;DHT22;34504;53.178;22.058;2022-08-19T01:17:43;22.60;91.00
28247;DHT22;34504;53.178;22.058;2022-08-19T01:20:16;22.60;91.00
28247;DHT22;34504;53.178;22.058;2022-08-19T01:22:48;22.60;91.00
28247;DHT22;34504;53.178;22.058;2022-08-19T01:25:24;22.60;91.00
28247;DHT22;34504;53.178;22.058;2022-08-19T01:27:55;22.60;91.00
28247;DHT22;34504;53.178;22.058;2022-08-19T01:30:35;22.60;91.00
28247;DHT22;34504;53.178;22.058;2022-08-19T01:33:03;22.60;91.00
28247;DHT22;34504;53.178;22.058;2022-08-19T01:35:35;22.60;91.30
28247;DHT22;34504;53.178;22.058;2022-08-19T01:38:06;22.60;91.10
28247;DHT22;34504;53.178;22.058;2022-08-19T01:40:38;22.50;91.20
28247;DHT22;34504;53.178;22.058;2022-08-19T01:43:07;22.50;91.00
28247;DHT22;34504;53.178;22.058;2022-08-19T01:45:36;22.40;91.00
28247;DHT22;34504;53.178;22.058;2022-08-19T01:48:05;22.40;91.20
28247;DHT22;34504;53.178;22.058;2022-08-19T01:50:34;22.30;91.20
28247;DHT22;34504;53.178;22.058;2022-08-19T01:53:05;22.30;91.20
28247;DHT22;34504;53.178;22.058;2022-08-19T01:55:37;22.30;91.20
28247;DHT22;34504;53.178;22.058;2022-08-19T01:58:15;22.30;91.20
28247;DHT22;34504;53.178;22.058;2022-08-19T02:00:45;22.20;91.30
28247;DHT22;34504;53.178;22.058;2022-08-19T02:03:14;22.20;91.30
28247;DHT22;34504;53.178;22.058;2022-08-19T02:05:43;22.20;91.30
28247;DHT22;34504;53.178;22.058;2022-08-19T02:08:12;22.20;91.40
28247;DHT22;34504;53.178;22.058;2022-08-19T02:10:41;22.20;91.50
28247;DHT22;34504;53.178;22.058;2022-08-19T02:13:16;22.20;91.60
28247;DHT22;34504;53.178;22.058;2022-08-19T02:15:52;22.20;91.60
28247;DHT22;34504;53.178;22.058;2022-08-19T02:18:21;22.20;91.70
28247;DHT22;34504;53.178;22.058;2022-08-19T02:20:54;22.20;91.80
28247;DHT22;34504;53.178;22.058;2022-08-19T02:23:23;22.20;91.70
28247;DHT22;34504;53.178;22.058;2022-08-19T02:25:51;22.20;91.70
28247;DHT22;34504;53.178;22.058;2022-08-19T02:28:19;22.20;91.70
28247;DHT22;34504;53.178;22.058;2022-08-19T02:30:48;22.20;91.70
28247;DHT22;34504;53.178;22.058;2022-08-19T02:33:16;22.20;91.70
28247;DHT22;34504;53.178;22.058;2022-08-19T02:35:46;22.20;91.80
28247;DHT22;34504;53.178;22.058;2022-08-19T02:38:14;22.20;91.70
28247;DHT22;34504;53.178;22.058;2022-08-19T02:40:57;22.20;92.00
28247;DHT22;34504;53.178;22.058;2022-08-19T02:43:28;22.20;91.70
28247;DHT22;34504;53.178;22.058;2022-08-19T02:46:02;22.10;91.80
28247;DHT22;34504;53.178;22.058;2022-08-19T02:48:30;22.20;91.80
28247;DHT22;34504;53.178;22.058;2022-08-19T02:51:00;22.20;91.90
28247;DHT22;34504;53.178;22.058;2022-08-19T02:53:28;22.20;91.90
28247;DHT22;34504;53.178;22.058;2022-08-19T02:55:57;22.10;91.90
28247;DHT22;34504;53.178;22.058;2022-08-19T02:58:25;22.20;91.80
28247;DHT22;34504;53.178;22.058;2022-08-19T03:00:55;22.20;91.90
28247;DHT22;34504;53.178;22.058;2022-08-19T03:03:24;22.20;92.00
28247;DHT22;34504;53.178;22.058;2022-08-19T03:06:06;22.20;92.10
28247;DHT22;34504;53.178;22.058;2022-08-19T03:08:34;22.20;92.00
28247;DHT22;34504;53.178;22.058;2022-08-19T03:11:03;22.10;92.20
28247;DHT22;34504;53.178;22.058;2022-08-19T03:13:31;22.20;92.00
28247;DHT22;34504;53.178;22.058;2022-08-19T03:16:04;22.20;92.00
28247;DHT22;34504;53.178;22.058;2022-08-19T03:18:32;22.20;92.10
28247;DHT22;34504;53.178;22.058;2022-08-19T03:21:02;22.20;92.00
28247;DHT22;34504;53.178;22.058;2022-08-19T03:23:30;22.20;92.00
28247;DHT22;34504;53.178;22.058;2022-08-19T03:25:58;22.20;92.00
28247;DHT22;34504;53.178;22.058;2022-08-19T03:28:44;22.20;92.10
28247;DHT22;34504;53.178;22.058;2022-08-19T03:31:20;22.20;92.10
28247;DHT22;34504;53.178;22.058;2022-08-19T03:34:16;22.20;92.00
28247;DHT22;34504;53.178;22.058;2022-08-19T03:36:46;22.20;92.10
28247;DHT22;34504;53.178;22.058;2022-08-19T03:39:15;22.20;92.20
28247;DHT22;34504;53.178;22.058;2022-08-19T03:41:45;22.20;92.00
28247;DHT22;34504;53.178;22.058;2022-08-19T03:44:18;22.20;92.10
28247;DHT22;34504;53.178;22.058;2022-08-19T03:46:50;22.20;92.00
28247;DHT22;34504;53.178;22.058;2022-08-19T03:49:20;22.20;92.00
28247;DHT22;34504;53.178;22.058;2022-08-19T03:51:57;22.20;92.00
28247;DHT22;34504;53.178;22.058;2022-08-19T03:54:26;22.20;92.10
28247;DHT22;34504;53.178;22.058;2022-08-19T03:56:55;22.10;92.10
28247;DHT22;34504;53.178;22.058;2022-08-19T03:59:30;22.10;92.20
28247;DHT22;34504;53.178;22.058;2022-08-19T04:02:18;22.10;92.20
28247;DHT22;34504;53.178;22.058;2022-08-19T04:04:46;22.10;92.30
28247;DHT22;34504;53.178;22.058;2022-08-19T04:07:15;22.20;92.10
28247;DHT22;34504;53.178;22.058;2022-08-19T04:09:43;22.20;92.00
28247;DHT22;34504;53.178;22.058;2022-08-19T04:12:11;22.30;91.90
28247;DHT22;34504;53.178;22.058;2022-08-19T04:14:40;22.30;91.90
28247;DHT22;34504;53.178;22.058;2022-08-19T04:17:08;22.40;91.80
28247;DHT22;34504;53.178;22.058;2022-08-19T04:19:36;22.40;91.70
28247;DHT22;34504;53.178;22.058;2022-08-19T04:22:05;22.50;91.60
28247;DHT22;34504;53.178;22.058;2022-08-19T04:24:34;22.60;91.50
28247;DHT22;34504;53.178;22.058;2022-08-19T04:27:04;22.60;91.40
28247;DHT22;34504;53.178;22.058;2022-08-19T04:29:33;22.70;91.30
28247;DHT22;34504;53.178;22.058;2022-08-19T04:32:02;22.70;91.20
28247;DHT22;34504;53.178;22.058;2022-08-19T04:34:37;22.80;91.10
28247;DHT22;34504;53.178;22.058;2022-08-19T04:37:27;22.90;91.00
28247;DHT22;34504;53.178;22.058;2022-08-19T04:40:05;23.00;90.90
28247;DHT22;34504;53.178;22.058;2022-08-19T04:42:52;23.00;90.70
28247;DHT22;34504;53.178;22.058;2022-08-19T04:45:22;23.10;90.60
28247;DHT22;34504;53.178;22.058;2022-08-19T04:47:54;23.10;90.50
28247;DHT22;34504;53.178;22.058;2022-08-19T04:50:44;23.20;90.40
28247;DHT22;34504;53.178;22.058;2022-08-19T04:53:12;23.20;90.30
28247;DHT22;34504;53.178;22.058;2022-08-19T04:55:41;23.20;90.10
28247;DHT22;34504;53.178;22.058;2022-08-19T04:58:10;23.20;90.10
28247;DHT22;34504;53.178;22.058;2022-08-19T05:00:39;23.30;90.00
28247;DHT22;34504;53.178;22.058;2022-08-19T05:03:07;23.30;89.70
28247;DHT22;34504;53.178;22.058;2022-08-19T05:05:40;23.40;89.40
28247;DHT22;34504;53.178;22.058;2022-08-19T05:08:12;23.40;89.20
28247;DHT22;34504;53.178;22.058;2022-08-19T05:10:42;23.50;89.00
28247;DHT22;34504;53.178;22.058;2022-08-19T05:13:10;23.50;88.60
28247;DHT22;34504;53.178;22.058;2022-08-19T05:15:39;23.60;88.50
28247;DHT22;34504;53.178;22.058;2022-08-19T05:18:07;23.60;88.20
28247;DHT22;34504;53.178;22.058;2022-08-19T05:20:53;23.70;88.40
28247;DHT22;34504;53.178;22.058;2022-08-19T05:23:43;23.70;88.00
28247;DHT22;34504;53.178;22.058;2022-08-19T05:26:14;23.70;87.40
28247;DHT22;34504;53.178;22.058;2022-08-19T05:28:44;23.80;87.60
28247;DHT22;34504;53.178;22.058;2022-08-19T05:31:12;23.80;87.50
28247;DHT22;34504;53.178;22.058;2022-08-19T05:33:40;23.90;87.20
28247;DHT22;34504;53.178;22.058;2022-08-19T05:36:08;24.00;87.00
28247;DHT22;34504;53.178;22.058;2022-08-19T05:38:37;24.10;86.40
28247;DHT22;34504;53.178;22.058;2022-08-19T05:41:13;24.10;86.20
28247;DHT22;34504;53.178;22.058;2022-08-19T05:43:41;24.10;85.70
28247;DHT22;34504;53.178;22.058;2022-08-19T05:46:18;24.20;85.70
28247;DHT22;34504;53.178;22.058;2022-08-19T05:48:55;24.40;85.20
28247;DHT22;34504;53.178;22.058;2022-08-19T05:51:24;24.50;85.00
28247;DHT22;34504;53.178;22.058;2022-08-19T05:53:55;24.60;84.90
28247;DHT22;34504;53.178;22.058;2022-08-19T05:56:24;24.70;84.20
28247;DHT22;34504;53.178;22.058;2022-08-19T05:58:52;24.80;83.80
28247;DHT22;34504;53.178;22.058;2022-08-19T06:01:26;24.90;84.00
28247;DHT22;34504;53.178;22.058;2022-08-19T06:03:54;24.90;83.20
28247;DHT22;34504;53.178;22.058;2022-08-19T06:06:21;24.90;82.70
28247;DHT22;34504;53.178;22.058;2022-08-19T06:08:50;25.00;82.90
28247;DHT22;34504;53.178;22.058;2022-08-19T06:14:15;25.10;82.10
28247;DHT22;34504;53.178;22.058;2022-08-19T06:16:44;25.20;82.30
28247;DHT22;34504;53.178;22.058;2022-08-19T06:19:15;25.20;82.00
28247;DHT22;34504;53.178;22.058;2022-08-19T06:21:46;25.20;82.10
28247;DHT22;34504;53.178;22.058;2022-08-19T06:24:16;25.30;81.80
28247;DHT22;34504;53.178;22.058;2022-08-19T06:26:47;25.30;81.60
28247;DHT22;34504;53.178;22.058;2022-08-19T06:29:35;25.40;81.70
28247;DHT22;34504;53.178;22.058;2022-08-19T06:32:04;25.40;82.20
28247;DHT22;34504;53.178;22.058;2022-08-19T06:34:33;25.40;81.70
28247;DHT22;34504;53.178;22.058;2022-08-19T06:37:02;25.50;81.80
28247;DHT22;34504;53.178;22.058;2022-08-19T06:39:33;25.50;81.90
28247;DHT22;34504;53.178;22.058;2022-08-19T06:42:03;25.60;81.90
28247;DHT22;34504;53.178;22.058;2022-08-19T06:44:39;25.70;80.80
28247;DHT22;34504;53.178;22.058;2022-08-19T06:47:12;25.70;80.60
28247;DHT22;34504;53.178;22.058;2022-08-19T06:49:56;25.80;80.50
28247;DHT22;34504;53.178;22.058;2022-08-19T06:52:35;25.80;80.80
28247;DHT22;34504;53.178;22.058;2022-08-19T06:55:05;25.90;80.90
28247;DHT22;34504;53.178;22.058;2022-08-19T06:57:34;25.90;79.90
28247;DHT22;34504;53.178;22.058;2022-08-19T07:00:04;25.90;79.80
28247;DHT22;34504;53.178;22.058;2022-08-19T07:02:36;25.90;80.20
28247;DHT22;34504;53.178;22.058;2022-08-19T07:05:06;25.90;80.20
28247;DHT22;34504;53.178;22.058;2022-08-19T07:07:37;26.00;79.50
28247;DHT22;34504;53.178;22.058;2022-08-19T07:10:09;26.00;80.30
28247;DHT22;34504;53.178;22.058;2022-08-19T07:12:38;26.10;79.50
28247;DHT22;34504;53.178;22.058;2022-08-19T07:15:08;26.10;78.80
28247;DHT22;34504;53.178;22.058;2022-08-19T07:17:38;26.10;78.70
28247;DHT22;34504;53.178;22.058;2022-08-19T07:20:09;26.20;78.80
28247;DHT22;34504;53.178;22.058;2022-08-19T07:22:39;26.30;78.70
28247;DHT22;34504;53.178;22.058;2022-08-19T07:25:08;26.40;78.90
28247;DHT22;34504;53.178;22.058;2022-08-19T07:27:37;26.60;78.50
28247;DHT22;34504;53.178;22.058;2022-08-19T07:30:08;26.70;78.40
28247;DHT22;34504;53.178;22.058;2022-08-19T07:32:39;26.70;77.60
28247;DHT22;34504;53.178;22.058;2022-08-19T07:35:08;26.80;77.60
28247;DHT22;34504;53.178;22.058;2022-08-19T07:37:37;26.90;77.00
28247;DHT22;34504;53.178;22.058;2022-08-19T07:40:07;26.90;77.20
28247;DHT22;34504;53.178;22.058;2022-08-19T07:42:35;26.90;77.30
28247;DHT22;34504;53.178;22.058;2022-08-19T07:45:04;27.00;76.90
28247;DHT22;34504;53.178;22.058;2022-08-19T07:47:33;27.00;77.40
28247;DHT22;34504;53.178;22.058;2022-08-19T07:50:19;27.20;76.50
28247;DHT22;34504;53.178;22.058;2022-08-19T07:52:49;27.20;76.70
28247;DHT22;34504;53.178;22.058;2022-08-19T07:55:21;27.30;76.10
28247;DHT22;34504;53.178;22.058;2022-08-19T07:58:12;27.30;75.60
28247;DHT22;34504;53.178;22.058;2022-08-19T08:00:41;27.20;75.60
28247;DHT22;34504;53.178;22.058;2022-08-19T08:03:10;27.30;75.50
28247;DHT22;34504;53.178;22.058;2022-08-19T08:05:38;27.30;75.30
28247;DHT22;34504;53.178;22.058;2022-08-19T08:08:24;27.30;75.80
28247;DHT22;34504;53.178;22.058;2022-08-19T08:11:19;27.30;75.10
28247;DHT22;34504;53.178;22.058;2022-08-19T08:13:50;27.30;75.20
28247;DHT22;34504;53.178;22.058;2022-08-19T08:16:36;27.40;74.90
28247;DHT22;34504;53.178;22.058;2022-08-19T08:19:06;27.50;73.70
28247;DHT22;34504;53.178;22.058;2022-08-19T08:21:54;27.50;73.20
28247;DHT22;34504;53.178;22.058;2022-08-19T08:24:23;27.60;73.80
28247;DHT22;34504;53.178;22.058;2022-08-19T08:26:55;27.70;72.70
28247;DHT22;34504;53.178;22.058;2022-08-19T08:29:25;27.80;73.80
28247;DHT22;34504;53.178;22.058;2022-08-19T08:32:02;27.80;73.10
28247;DHT22;34504;53.178;22.058;2022-08-19T08:34:42;27.80;71.80
28247;DHT22;34504;53.178;22.058;2022-08-19T08:37:10;27.90;72.30
28247;DHT22;34504;53.178;22.058;2022-08-19T08:39:38;27.90;71.20
28247;DHT22;34504;53.178;22.058;2022-08-19T08:42:07;28.00;71.30
28247;DHT22;34504;53.178;22.058;2022-08-19T08:47:38;28.10;70.90
28247;DHT22;34504;53.178;22.058;2022-08-19T08:50:10;28.20;70.50
28247;DHT22;34504;53.178;22.058;2022-08-19T08:52:47;28.20;68.80
28247;DHT22;34504;53.178;22.058;2022-08-19T08:55:24;28.30;70.10
28247;DHT22;34504;53.178;22.058;2022-08-19T08:58:05;28.30;69.80
28247;DHT22;34504;53.178;22.058;2022-08-19T09:00:40;28.40;69.70
28247;DHT22;34504;53.178;22.058;2022-08-19T09:03:23;28.40;69.70
28247;DHT22;34504;53.178;22.058;2022-08-19T09:06:04;28.50;69.00
28247;DHT22;34504;53.178;22.058;2022-08-19T09:11:51;28.70;68.40
28247;DHT22;34504;53.178;22.058;2022-08-19T09:14:35;28.70;67.60
28247;DHT22;34504;53.178;22.058;2022-08-19T09:17:20;28.80;68.30
28247;DHT22;34504;53.178;22.058;2022-08-19T09:20:05;28.90;67.80
28247;DHT22;34504;53.178;22.058;2022-08-19T09:22:38;29.10;67.40
28247;DHT22;34504;53.178;22.058;2022-08-19T09:25:08;29.20;68.30
28247;DHT22;34504;53.178;22.058;2022-08-19T09:27:41;29.30;67.50
28247;DHT22;34504;53.178;22.058;2022-08-19T09:30:17;29.40;67.20
28247;DHT22;34504;53.178;22.058;2022-08-19T09:32:47;29.50;65.40
28247;DHT22;34504;53.178;22.058;2022-08-19T09:35:24;29.50;65.80
28247;DHT22;34504;53.178;22.058;2022-08-19T09:37:56;29.70;64.00
28247;DHT22;34504;53.178;22.058;2022-08-19T09:40:28;29.70;63.40
28247;DHT22;34504;53.178;22.058;2022-08-19T09:42:59;29.70;63.30
28247;DHT22;34504;53.178;22.058;2022-08-19T09:45:40;29.80;63.50
28247;DHT22;34504;53.178;22.058;2022-08-19T09:48:08;29.90;62.80
28247;DHT22;34504;53.178;22.058;2022-08-19T09:50:45;29.90;62.00
28247;DHT22;34504;53.178;22.058;2022-08-19T09:53:19;29.90;61.00
28247;DHT22;34504;53.178;22.058;2022-08-19T09:55:55;29.90;61.20
28247;DHT22;34504;53.178;22.058;2022-08-19T09:58:23;30.00;62.20
28247;DHT22;34504;53.178;22.058;2022-08-19T10:00:56;30.10;61.20
28247;DHT22;34504;53.178;22.058;2022-08-19T10:03:25;30.30;61.80
28247;DHT22;34504;53.178;22.058;2022-08-19T10:05:59;30.30;61.10
28247;DHT22;34504;53.178;22.058;2022-08-19T10:08:34;30.40;59.30
28247;DHT22;34504;53.178;22.058;2022-08-19T10:11:03;30.40;60.20
28247;DHT22;34504;53.178;22.058;2022-08-19T10:13:51;30.50;58.70
28247;DHT22;34504;53.178;22.058;2022-08-19T10:16:21;30.50;59.20
28247;DHT22;34504;53.178;22.058;2022-08-19T10:18:56;30.60;58.00
28247;DHT22;34504;53.178;22.058;2022-08-19T10:21:29;30.70;57.90
28247;DHT22;34504;53.178;22.058;2022-08-19T10:24:00;30.60;58.10
28247;DHT22;34504;53.178;22.058;2022-08-19T10:26:34;30.70;57.70
28247;DHT22;34504;53.178;22.058;2022-08-19T10:29:05;30.70;57.30
28247;DHT22;34504;53.178;22.058;2022-08-19T10:31:36;30.70;57.50
28247;DHT22;34504;53.178;22.058;2022-08-19T10:34:24;30.80;57.50
28247;DHT22;34504;53.178;22.058;2022-08-19T10:36:56;30.80;55.70
28247;DHT22;34504;53.178;22.058;2022-08-19T10:39:29;30.70;55.40
28247;DHT22;34504;53.178;22.058;2022-08-19T10:42:10;30.60;54.80
28247;DHT22;34504;53.178;22.058;2022-08-19T10:44:39;30.70;54.50
28247;DHT22;34504;53.178;22.058;2022-08-19T10:47:07;30.80;55.60
28247;DHT22;34504;53.178;22.058;2022-08-19T10:49:52;30.90;53.50
28247;DHT22;34504;53.178;22.058;2022-08-19T10:52:44;31.00;52.30
28247;DHT22;34504;53.178;22.058;2022-08-19T10:55:20;31.10;50.60
28247;DHT22;34504;53.178;22.058;2022-08-19T10:58:13;31.20;50.90
28247;DHT22;34504;53.178;22.058;2022-08-19T11:00:42;31.10;50.80
28247;DHT22;34504;53.178;22.058;2022-08-19T11:03:13;31.10;50.90
28247;DHT22;34504;53.178;22.058;2022-08-19T11:05:41;31.20;51.50
28247;DHT22;34504;53.178;22.058;2022-08-19T11:08:12;31.30;50.30
28247;DHT22;34504;53.178;22.058;2022-08-19T11:10:51;31.30;49.80
28247;DHT22;34504;53.178;22.058;2022-08-19T11:13:34;31.30;50.30
28247;DHT22;34504;53.178;22.058;2022-08-19T11:16:07;31.30;49.70
28247;DHT22;34504;53.178;22.058;2022-08-19T11:18:37;31.30;50.70
28247;DHT22;34504;53.178;22.058;2022-08-19T11:21:19;31.40;50.90
28247;DHT22;34504;53.178;22.058;2022-08-19T11:23:54;31.40;50.70
28247;DHT22;34504;53.178;22.058;2022-08-19T11:26:23;31.50;51.10
28247;DHT22;34504;53.178;22.058;2022-08-19T11:28:52;31.50;50.40
28247;DHT22;34504;53.178;22.058;2022-08-19T11:31:24;31.60;51.50
28247;DHT22;34504;53.178;22.058;2022-08-19T11:34:00;31.60;50.00
28247;DHT22;34504;53.178;22.058;2022-08-19T11:36:29;31.50;49.60
28247;DHT22;34504;53.178;22.058;2022-08-19T11:38:59;31.60;50.20
28247;DHT22;34504;53.178;22.058;2022-08-19T11:41:27;31.60;50.30
28247;DHT22;34504;53.178;22.058;2022-08-19T11:43:56;31.60;50.20
28247;DHT22;34504;53.178;22.058;2022-08-19T11:46:26;31.60;50.00
28247;DHT22;34504;53.178;22.058;2022-08-19T11:48:57;31.60;49.60
28247;DHT22;34504;53.178;22.058;2022-08-19T11:51:27;31.60;49.40
28247;DHT22;34504;53.178;22.058;2022-08-19T11:53:57;31.50;49.80
28247;DHT22;34504;53.178;22.058;2022-08-19T11:56:27;31.50;50.10
28247;DHT22;34504;53.178;22.058;2022-08-19T11:58:56;31.50;49.50
28247;DHT22;34504;53.178;22.058;2022-08-19T12:01:25;31.50;49.20
28247;DHT22;34504;53.178;22.058;2022-08-19T12:03:55;31.40;49.40
28247;DHT22;34504;53.178;22.058;2022-08-19T12:06:27;31.40;49.90
28247;DHT22;34504;53.178;22.058;2022-08-19T12:08:58;31.50;50.20
28247;DHT22;34504;53.178;22.058;2022-08-19T12:11:40;31.50;50.40
28247;DHT22;34504;53.178;22.058;2022-08-19T12:14:12;31.50;49.90
28247;DHT22;34504;53.178;22.058;2022-08-19T12:16:45;31.50;50.00
28247;DHT22;34504;53.178;22.058;2022-08-19T12:19:19;31.40;49.60
28247;DHT22;34504;53.178;22.058;2022-08-19T12:21:49;31.30;49.70
28247;DHT22;34504;53.178;22.058;2022-08-19T12:24:18;31.30;49.60
28247;DHT22;34504;53.178;22.058;2022-08-19T12:26:51;31.30;49.70
28247;DHT22;34504;53.178;22.058;2022-08-19T12:29:21;31.20;49.30
28247;DHT22;34504;53.178;22.058;2022-08-19T12:31:50;31.20;49.40
28247;DHT22;34504;53.178;22.058;2022-08-19T12:34:19;31.20;48.90
28247;DHT22;34504;53.178;22.058;2022-08-19T12:36:48;31.20;49.50
28247;DHT22;34504;53.178;22.058;2022-08-19T12:39:17;31.20;49.50
28247;DHT22;34504;53.178;22.058;2022-08-19T12:41:45;31.20;49.20
28247;DHT22;34504;53.178;22.058;2022-08-19T12:44:21;31.20;49.00
28247;DHT22;34504;53.178;22.058;2022-08-19T12:46:59;31.20;49.30
28247;DHT22;34504;53.178;22.058;2022-08-19T12:49:28;31.20;49.60
28247;DHT22;34504;53.178;22.058;2022-08-19T12:52:16;31.20;49.30
28247;DHT22;34504;53.178;22.058;2022-08-19T12:54:51;31.20;48.80
28247;DHT22;34504;53.178;22.058;2022-08-19T12:57:26;31.10;48.70
28247;DHT22;34504;53.178;22.058;2022-08-19T13:00:11;31.00;48.30
28247;DHT22;34504;53.178;22.058;2022-08-19T13:02:43;30.90;49.10
28247;DHT22;34504;53.178;22.058;2022-08-19T13:05:14;30.90;49.10
28247;DHT22;34504;53.178;22.058;2022-08-19T13:07:43;30.80;49.30
28247;DHT22;34504;53.178;22.058;2022-08-19T13:10:14;30.90;48.90
28247;DHT22;34504;53.178;22.058;2022-08-19T13:12:48;30.90;48.60
28247;DHT22;34504;53.178;22.058;2022-08-19T13:15:18;30.90;48.40
28247;DHT22;34504;53.178;22.058;2022-08-19T13:17:52;30.80;48.80
28247;DHT22;34504;53.178;22.058;2022-08-19T13:20:21;30.90;48.70
28247;DHT22;34504;53.178;22.058;2022-08-19T13:22:49;30.90;48.70
28247;DHT22;34504;53.178;22.058;2022-08-19T13:25:18;30.90;49.40
28247;DHT22;34504;53.178;22.058;2022-08-19T13:27:48;31.00;48.30
28247;DHT22;34504;53.178;22.058;2022-08-19T13:30:19;31.00;48.40
28247;DHT22;34504;53.178;22.058;2022-08-19T13:33:06;31.00;48.10
28247;DHT22;34504;53.178;22.058;2022-08-19T13:38:13;31.00;48.30
28247;DHT22;34504;53.178;22.058;2022-08-19T13:40:41;31.00;48.10
28247;DHT22;34504;53.178;22.058;2022-08-19T13:43:09;31.00;47.70
28247;DHT22;34504;53.178;22.058;2022-08-19T13:45:53;31.00;47.80
28247;DHT22;34504;53.178;22.058;2022-08-19T13:48:24;30.90;47.60
28247;DHT22;34504;53.178;22.058;2022-08-19T13:50:54;31.00;47.90
28247;DHT22;34504;53.178;22.058;2022-08-19T13:53:22;31.00;48.30
28247;DHT22;34504;53.178;22.058;2022-08-19T13:55:51;31.00;48.30
28247;DHT22;34504;53.178;22.058;2022-08-19T13:58:24;31.00;48.20
28247;DHT22;34504;53.178;22.058;2022-08-19T14:00:51;31.10;48.30
28247;DHT22;34504;53.178;22.058;2022-08-19T14:03:20;31.10;48.20
28247;DHT22;34504;53.178;22.058;2022-08-19T14:05:48;31.10;48.40
28247;DHT22;34504;53.178;22.058;2022-08-19T14:08:16;31.10;48.50
28247;DHT22;34504;53.178;22.058;2022-08-19T14:10:45;31.20;48.70
28247;DHT22;34504;53.178;22.058;2022-08-19T14:13:15;31.10;48.10
28247;DHT22;34504;53.178;22.058;2022-08-19T14:15:44;31.10;48.40
28247;DHT22;34504;53.178;22.058;2022-08-19T14:18:13;31.10;49.00
28247;DHT22;34504;53.178;22.058;2022-08-19T14:20:41;31.10;48.50
28247;DHT22;34504;53.178;22.058;2022-08-19T14:23:10;31.10;47.90
28247;DHT22;34504;53.178;22.058;2022-08-19T14:25:39;31.00;47.20
28247;DHT22;34504;53.178;22.058;2022-08-19T14:28:08;31.00;47.50
28247;DHT22;34504;53.178;22.058;2022-08-19T14:30:37;31.00;46.80
28247;DHT22;34504;53.178;22.058;2022-08-19T14:33:06;31.00;46.90
28247;DHT22;34504;53.178;22.058;2022-08-19T14:35:34;31.00;46.60
28247;DHT22;34504;53.178;22.058;2022-08-19T14:38:04;31.00;46.50
28247;DHT22;34504;53.178;22.058;2022-08-19T14:40:32;31.00;46.60
28247;DHT22;34504;53.178;22.058;2022-08-19T14:43:03;31.00;46.20
28247;DHT22;34504;53.178;22.058;2022-08-19T14:45:35;31.00;46.00
28247;DHT22;34504;53.178;22.058;2022-08-19T14:48:08;31.00;46.10
28247;DHT22;34504;53.178;22.058;2022-08-19T14:50:45;31.00;46.00
28247;DHT22;34504;53.178;22.058;2022-08-19T14:53:15;31.00;45.90
28247;DHT22;34504;53.178;22.058;2022-08-19T14:55:45;31.00;45.70
28247;DHT22;34504;53.178;22.058;2022-08-19T14:58:14;31.00;45.60
28247;DHT22;34504;53.178;22.058;2022-08-19T15:00:58;31.00;45.20
28247;DHT22;34504;53.178;22.058;2022-08-19T15:03:28;30.90;45.50
28247;DHT22;34504;53.178;22.058;2022-08-19T15:05:56;30.90;45.00
28247;DHT22;34504;53.178;22.058;2022-08-19T15:08:26;30.90;44.70
28247;DHT22;34504;53.178;22.058;2022-08-19T15:10:55;30.90;45.40
28247;DHT22;34504;53.178;22.058;2022-08-19T15:13:28;30.90;45.00
28247;DHT22;34504;53.178;22.058;2022-08-19T15:15:56;30.90;44.70
28247;DHT22;34504;53.178;22.058;2022-08-19T15:18:24;30.80;44.90
28247;DHT22;34504;53.178;22.058;2022-08-19T15:20:53;30.80;45.20
28247;DHT22;34504;53.178;22.058;2022-08-19T15:23:22;30.70;45.30
28247;DHT22;34504;53.178;22.058;2022-08-19T15:25:51;30.70;45.60
28247;DHT22;34504;53.178;22.058;2022-08-19T15:28:25;30.70;45.90
28247;DHT22;34504;53.178;22.058;2022-08-19T15:30:53;30.70;45.80
28247;DHT22;34504;53.178;22.058;2022-08-19T15:33:21;30.60;45.70
28247;DHT22;34504;53.178;22.058;2022-08-19T15:35:49;30.70;45.80
28247;DHT22;34504;53.178;22.058;2022-08-19T15:38:19;30.60;45.60
28247;DHT22;34504;53.178;22.058;2022-08-19T15:40:49;30.60;45.60
28247;DHT22;34504;53.178;22.058;2022-08-19T15:43:18;30.60;45.70
28247;DHT22;34504;53.178;22.058;2022-08-19T15:45:48;30.50;46.10
28247;DHT22;34504;53.178;22.058;2022-08-19T15:48:16;30.50;46.20
28247;DHT22;34504;53.178;22.058;2022-08-19T15:50:44;30.50;46.20
28247;DHT22;34504;53.178;22.058;2022-08-19T15:53:12;30.50;46.50
28247;DHT22;34504;53.178;22.058;2022-08-19T15:55:45;30.50;46.50
28247;DHT22;34504;53.178;22.058;2022-08-19T15:58:14;30.50;46.40